createdAt,value
2019-02-08T00:00:36.317Z,6.75
2019-02-08T00:01:36.308Z,6.69
2019-02-08T00:02:36.296Z,6.69
2019-02-08T00:03:36.287Z,6.74
2019-02-08T00:04:36.287Z,6.67
2019-02-08T00:05:36.261Z,6.66
2019-02-08T00:06:36.245Z,6.78
2019-02-08T00:07:36.235Z,6.74
2019-02-08T00:08:36.227Z,6.78
2019-02-08T00:09:36.236Z,6.72
2019-02-08T00:10:36.223Z,6.69
2019-02-08T00:11:36.190Z,6.70
2019-02-08T00:12:36.183Z,6.70
2019-02-08T00:13:36.175Z,6.74
2019-02-08T00:14:36.181Z,6.59
2019-02-08T00:15:36.178Z,6.66
2019-02-08T00:16:36.142Z,6.66
2019-02-08T00:17:36.125Z,6.57
2019-02-08T00:18:36.118Z,6.63
2019-02-08T00:19:36.106Z,6.59
2019-02-08T00:20:36.098Z,6.74
2019-02-08T00:21:36.109Z,6.62
2019-02-08T00:22:36.077Z,6.63
2019-02-08T00:23:36.064Z,6.60
2019-02-08T00:24:36.072Z,6.56
2019-02-08T00:25:36.055Z,6.54
2019-02-08T00:26:36.051Z,6.59
2019-02-08T00:27:36.023Z,6.51
2019-02-08T00:28:36.008Z,6.56
2019-02-08T00:29:36.006Z,6.63
2019-02-08T00:30:36.016Z,6.56
2019-02-08T00:31:35.993Z,6.64
2019-02-08T00:32:35.983Z,6.54
2019-02-08T00:33:35.957Z,6.66
2019-02-08T00:34:35.964Z,6.59
2019-02-08T00:35:35.950Z,6.57
2019-02-08T00:36:35.920Z,6.57
2019-02-08T00:37:35.923Z,6.60
2019-02-08T00:38:35.896Z,6.60
2019-02-08T00:39:35.887Z,6.49
2019-02-08T00:40:35.897Z,6.63
2019-02-08T00:41:35.871Z,6.56
2019-02-08T00:42:35.853Z,6.63
2019-02-08T00:43:35.845Z,6.67
2019-02-08T00:44:35.836Z,6.60
2019-02-08T00:45:35.849Z,6.59
2019-02-08T00:46:35.816Z,6.64
2019-02-08T00:47:35.804Z,6.69
2019-02-08T00:48:35.790Z,6.60
2019-02-08T00:49:35.776Z,6.70
2019-02-08T00:50:35.786Z,6.60
2019-02-08T00:51:35.757Z,6.67
2019-02-08T00:52:35.748Z,6.60
2019-02-08T00:53:35.740Z,6.52
2019-02-08T00:54:35.729Z,6.63
2019-02-08T00:55:35.732Z,6.56
2019-02-08T00:56:35.702Z,6.54
2019-02-08T00:57:35.692Z,6.63
2019-02-08T00:58:35.689Z,6.59
2019-02-08T00:59:35.673Z,6.46
2019-02-08T01:00:35.684Z,6.51
2019-02-08T01:01:35.648Z,6.56
2019-02-08T01:02:35.636Z,6.54
2019-02-08T01:03:35.627Z,6.52
2019-02-08T01:04:35.619Z,6.57
2019-02-08T01:05:35.609Z,6.54
2019-02-08T01:06:35.618Z,6.49
2019-02-08T01:07:35.593Z,6.60
2019-02-08T01:08:35.573Z,6.54
2019-02-08T01:09:35.559Z,6.48
2019-02-08T01:10:35.548Z,6.49
2019-02-08T01:11:35.558Z,6.45
2019-02-08T01:12:35.532Z,6.48
2019-02-08T01:13:35.522Z,6.54
2019-02-08T01:14:35.506Z,6.54
2019-02-08T01:15:35.496Z,6.48
2019-02-08T01:16:35.504Z,6.46
2019-02-08T01:17:35.478Z,6.48
2019-02-08T01:18:35.468Z,6.52
2019-02-08T01:19:35.455Z,6.54
2019-02-08T01:20:35.462Z,6.46
2019-02-08T01:21:35.430Z,6.45
2019-02-08T01:22:35.418Z,6.52
2019-02-08T01:23:41.103Z,6.46
2019-02-08T01:24:36.399Z,6.54
2019-02-08T01:25:35.410Z,6.49
2019-02-08T01:26:35.381Z,6.46
2019-02-08T01:27:35.388Z,6.51
2019-02-08T01:28:35.355Z,6.46
2019-02-08T01:29:35.349Z,6.51
2019-02-08T01:30:35.337Z,6.54
2019-02-08T01:31:35.342Z,6.54
2019-02-08T01:32:35.310Z,6.56
2019-02-08T01:33:35.315Z,6.54
2019-02-08T01:34:35.287Z,6.59
2019-02-08T01:35:35.281Z,6.60
2019-02-08T01:36:35.270Z,6.56
2019-02-08T01:37:35.261Z,6.54
2019-02-08T01:38:35.268Z,6.60
2019-02-08T01:39:35.237Z,6.57
2019-02-08T01:40:35.243Z,6.54
2019-02-08T01:41:35.233Z,6.52
2019-02-08T01:42:35.204Z,6.52
2019-02-08T01:43:35.210Z,6.48
2019-02-08T01:44:35.183Z,6.49
2019-02-08T01:45:35.192Z,6.48
2019-02-08T01:46:35.157Z,6.54
2019-02-08T01:47:35.148Z,6.49
2019-02-08T01:48:35.140Z,6.52
2019-02-08T01:49:35.161Z,6.46
2019-02-08T01:50:35.121Z,6.45
2019-02-08T01:51:35.108Z,6.46
2019-02-08T01:52:35.094Z,6.48
2019-02-08T01:53:35.081Z,6.41
2019-02-08T01:54:35.088Z,6.39
2019-02-08T01:55:35.082Z,6.39
2019-02-08T01:56:35.053Z,6.41
2019-02-08T01:57:35.044Z,6.41
2019-02-08T01:58:35.034Z,6.27
2019-02-08T01:59:35.022Z,6.35
2019-02-08T02:00:35.040Z,6.33
2019-02-08T02:01:34.994Z,6.41
2019-02-08T02:02:34.990Z,6.36
2019-02-08T02:03:34.979Z,6.39
2019-02-08T02:04:34.964Z,6.39
2019-02-08T02:05:34.955Z,6.44
2019-02-08T02:06:34.957Z,6.52
2019-02-08T02:07:34.932Z,6.49
2019-02-08T02:08:34.922Z,6.51
2019-02-08T02:09:34.922Z,6.48
2019-02-08T02:10:34.898Z,6.48
2019-02-08T02:11:34.913Z,6.54
2019-02-08T02:12:34.881Z,6.39
2019-02-08T02:13:34.869Z,6.42
2019-02-08T02:14:34.858Z,6.36
2019-02-08T02:15:34.870Z,6.39
2019-02-08T02:16:34.830Z,6.38
2019-02-08T02:17:34.840Z,6.38
2019-02-08T02:18:34.815Z,6.39
2019-02-08T02:19:34.819Z,6.38
2019-02-08T02:20:34.787Z,6.41
2019-02-08T02:21:34.796Z,6.36
2019-02-08T02:22:34.785Z,6.39
2019-02-08T02:23:34.755Z,6.45
2019-02-08T02:24:34.751Z,6.41
2019-02-08T02:25:34.737Z,6.39
2019-02-08T02:26:34.748Z,6.45
2019-02-08T02:27:34.720Z,6.41
2019-02-08T02:28:34.700Z,6.44
2019-02-08T02:29:34.692Z,6.54
2019-02-08T02:30:34.687Z,6.49
2019-02-08T02:31:34.685Z,6.46
2019-02-08T02:32:34.665Z,6.42
2019-02-08T02:33:34.653Z,6.38
2019-02-08T02:34:34.635Z,6.30
2019-02-08T02:35:34.627Z,6.42
2019-02-08T02:36:34.639Z,6.35
2019-02-08T02:37:34.611Z,6.42
2019-02-08T02:38:34.599Z,6.36
2019-02-08T02:39:34.596Z,6.39
2019-02-08T02:40:34.594Z,6.39
2019-02-08T02:41:34.586Z,6.28
2019-02-08T02:42:34.559Z,6.31
2019-02-08T02:43:34.537Z,6.26
2019-02-08T02:44:34.564Z,6.35
2019-02-08T02:45:34.539Z,6.33
2019-02-08T02:46:34.525Z,6.36
2019-02-08T02:47:34.513Z,6.39
2019-02-08T02:48:34.491Z,6.41
2019-02-08T02:49:34.476Z,6.35
2019-02-08T02:50:34.463Z,6.35
2019-02-08T02:51:34.470Z,6.48
2019-02-08T02:52:34.446Z,6.54
2019-02-08T02:53:34.440Z,6.49
2019-02-08T02:54:34.422Z,6.51
2019-02-08T02:55:34.413Z,6.48
2019-02-08T02:56:34.418Z,6.54
2019-02-08T02:57:34.389Z,6.51
2019-02-08T02:58:34.378Z,6.54
2019-02-08T02:59:34.364Z,6.51
2019-02-08T03:00:34.359Z,6.57
2019-02-08T03:01:34.363Z,6.52
2019-02-08T03:02:34.336Z,6.54
2019-02-08T03:03:34.346Z,6.49
2019-02-08T03:04:34.316Z,6.57
2019-02-08T03:05:34.301Z,6.59
2019-02-08T03:06:34.320Z,6.56
2019-02-08T03:07:34.284Z,6.57
2019-02-08T03:08:34.269Z,6.56
2019-02-08T03:09:34.257Z,6.63
2019-02-08T03:10:34.246Z,6.66
2019-02-08T03:11:34.233Z,6.63
2019-02-08T03:12:34.252Z,6.69
2019-02-08T03:13:34.219Z,6.66
2019-02-08T03:14:34.207Z,6.63
2019-02-08T03:15:34.196Z,6.63
2019-02-08T03:16:34.179Z,6.59
2019-02-08T03:17:34.190Z,6.57
2019-02-08T03:18:34.160Z,6.62
2019-02-08T03:19:34.146Z,6.60
2019-02-08T03:20:34.143Z,6.63
2019-02-08T03:21:34.130Z,6.64
2019-02-08T03:22:34.134Z,6.74
2019-02-08T03:23:34.123Z,6.74
2019-02-08T03:24:34.100Z,6.77
2019-02-08T03:25:34.086Z,6.67
2019-02-08T03:26:34.074Z,6.62
2019-02-08T03:27:34.085Z,6.54
2019-02-08T03:28:34.049Z,6.54
2019-02-08T03:29:34.040Z,6.60
2019-02-08T03:30:34.031Z,6.46
2019-02-08T03:31:34.018Z,6.31
2019-02-08T03:32:34.038Z,6.27
2019-02-08T03:33:34.022Z,6.19
2019-02-08T03:34:34.010Z,6.22
2019-02-08T03:35:33.980Z,6.12
2019-02-08T03:36:33.963Z,6.12
2019-02-08T03:37:33.954Z,6.14
2019-02-08T03:38:33.946Z,6.07
2019-02-08T03:39:33.955Z,5.99
2019-02-08T03:40:33.919Z,5.99
2019-02-08T03:41:33.921Z,6.07
2019-02-08T03:42:33.919Z,5.99
2019-02-08T03:43:33.891Z,6.02
2019-02-08T03:44:33.907Z,6.02
2019-02-08T03:45:33.884Z,6.01
2019-02-08T03:46:33.860Z,6.02
2019-02-08T03:47:33.850Z,6.09
2019-02-08T03:48:33.831Z,6.11
2019-02-08T03:49:33.825Z,6.08
2019-02-08T03:50:33.831Z,6.07
2019-02-08T03:51:33.801Z,6.09
2019-02-08T03:52:33.813Z,6.17
2019-02-08T03:53:33.784Z,6.16
2019-02-08T03:54:33.788Z,6.12
2019-02-08T03:55:33.761Z,6.09
2019-02-08T03:56:33.758Z,6.07
2019-02-08T03:57:33.755Z,6.07
2019-02-08T03:58:33.741Z,6.07
2019-02-08T03:59:33.719Z,6.16
2019-02-08T04:00:33.719Z,6.12
2019-02-08T04:01:33.693Z,6.08
2019-02-08T04:02:33.701Z,6.04
2019-02-08T04:03:33.668Z,6.01
2019-02-08T04:04:33.684Z,6.05
2019-02-08T04:05:33.656Z,5.91
2019-02-08T04:06:33.641Z,5.98
2019-02-08T04:07:33.652Z,5.99
2019-02-08T04:08:33.618Z,5.90
2019-02-08T04:09:33.626Z,5.82
2019-02-08T04:10:33.597Z,5.83
2019-02-08T04:11:33.590Z,5.80
2019-02-08T04:12:33.603Z,5.84
2019-02-08T04:13:33.563Z,5.84
2019-02-08T04:14:33.572Z,5.83
2019-02-08T04:15:33.540Z,5.93
2019-02-08T04:16:33.539Z,5.97
2019-02-08T04:17:33.545Z,5.91
2019-02-08T04:18:33.512Z,6.01
2019-02-08T04:19:33.503Z,5.99
2019-02-08T04:20:33.487Z,5.91
2019-02-08T04:21:33.477Z,5.94
2019-02-08T04:22:33.483Z,5.91
2019-02-08T04:23:33.454Z,5.97
2019-02-08T04:24:33.452Z,5.98
2019-02-08T04:25:33.437Z,5.98
2019-02-08T04:26:35.177Z,5.93
2019-02-08T04:27:33.428Z,5.99
2019-02-08T04:28:33.411Z,5.91
2019-02-08T04:29:33.394Z,5.98
2019-02-08T04:30:33.383Z,6.08
2019-02-08T04:31:33.373Z,6.02
2019-02-08T04:32:33.388Z,6.05
2019-02-08T04:33:33.371Z,6.02
2019-02-08T04:34:33.351Z,6.07
2019-02-08T04:35:33.323Z,6.09
2019-02-08T04:36:33.325Z,6.08
2019-02-08T04:37:33.311Z,6.09
2019-02-08T04:38:33.313Z,6.05
2019-02-08T04:39:33.286Z,6.07
2019-02-08T04:40:33.287Z,6.09
2019-02-08T04:41:33.263Z,6.16
2019-02-08T04:42:33.253Z,6.09
2019-02-08T04:43:33.244Z,6.05
2019-02-08T04:44:33.233Z,6.11
2019-02-08T04:45:33.236Z,6.07
2019-02-08T04:46:33.207Z,6.08
2019-02-08T04:47:33.193Z,6.05
2019-02-08T04:48:33.191Z,6.09
2019-02-08T04:49:33.177Z,6.11
2019-02-08T04:50:33.185Z,6.05
2019-02-08T04:51:33.166Z,6.09
2019-02-08T04:52:33.141Z,6.14
2019-02-08T04:53:33.141Z,6.11
2019-02-08T04:54:38.345Z,6.14
2019-02-08T04:55:34.134Z,6.16
2019-02-08T04:56:33.104Z,6.12
2019-02-08T04:57:33.090Z,6.11
2019-02-08T04:58:35.659Z,6.20
2019-02-08T04:59:33.063Z,6.19
2019-02-08T05:00:33.061Z,6.17
2019-02-08T05:01:33.064Z,6.31
2019-02-08T05:02:33.037Z,6.24
2019-02-08T05:03:33.028Z,6.33
2019-02-08T05:04:33.011Z,6.22
2019-02-08T05:05:33.003Z,6.31
2019-02-08T05:06:33.008Z,6.38
2019-02-08T05:07:32.977Z,6.35
2019-02-08T05:08:32.985Z,6.36
2019-02-08T05:09:32.962Z,6.28
2019-02-08T05:10:32.950Z,6.20
2019-02-08T05:11:32.961Z,6.11
2019-02-08T05:12:32.924Z,6.17
2019-02-08T05:13:32.932Z,6.17
2019-02-08T05:14:32.906Z,6.24
2019-02-08T05:15:32.903Z,6.14
2019-02-08T05:16:32.898Z,6.17
2019-02-08T05:17:32.871Z,6.20
2019-02-08T05:18:32.861Z,6.19
2019-02-08T05:19:32.847Z,6.14
2019-02-08T05:20:32.853Z,6.22
2019-02-08T05:21:32.849Z,6.28
2019-02-08T05:22:32.838Z,6.35
2019-02-08T05:23:32.817Z,6.38
2019-02-08T05:24:32.792Z,6.27
2019-02-08T05:25:32.784Z,6.31
2019-02-08T05:26:32.793Z,6.28
2019-02-08T05:27:32.762Z,6.31
2019-02-08T05:28:32.772Z,6.26
2019-02-08T05:29:32.744Z,6.31
2019-02-08T05:30:32.735Z,6.22
2019-02-08T05:31:32.717Z,6.30
2019-02-08T05:32:32.713Z,6.17
2019-02-08T05:33:32.717Z,6.30
2019-02-08T05:34:32.689Z,6.26
2019-02-08T05:35:32.684Z,6.20
2019-02-08T05:36:32.662Z,6.22
2019-02-08T05:37:32.672Z,6.20
2019-02-08T05:38:32.643Z,6.20
2019-02-08T05:39:32.632Z,6.09
2019-02-08T05:40:32.626Z,6.14
2019-02-08T05:41:32.612Z,6.09
2019-02-08T05:42:32.619Z,6.01
2019-02-08T05:43:32.593Z,6.01
2019-02-08T05:44:32.578Z,6.07
2019-02-08T05:45:32.568Z,5.99
2019-02-08T05:46:32.558Z,6.01
2019-02-08T05:47:32.569Z,6.02
2019-02-08T05:48:32.532Z,5.94
2019-02-08T05:49:32.531Z,5.91
2019-02-08T05:50:32.516Z,5.89
2019-02-08T05:51:32.501Z,5.89
2019-02-08T05:52:32.525Z,5.87
2019-02-08T05:53:32.483Z,5.79
2019-02-08T05:54:32.475Z,5.84
2019-02-08T05:55:32.465Z,5.84
2019-02-08T05:56:32.447Z,5.82
2019-02-08T05:57:32.437Z,5.75
2019-02-08T05:58:32.449Z,5.83
2019-02-08T05:59:32.417Z,5.79
2019-02-08T06:00:32.422Z,5.80
2019-02-08T06:01:32.397Z,5.89
2019-02-08T06:02:32.402Z,5.89
2019-02-08T06:03:32.370Z,5.87
2019-02-08T06:04:32.374Z,5.84
2019-02-08T06:05:32.355Z,5.90
2019-02-08T06:06:32.343Z,5.91
2019-02-08T06:07:32.351Z,5.86
2019-02-08T06:08:32.316Z,5.84
2019-02-08T06:09:32.309Z,5.87
2019-02-08T06:10:32.296Z,5.91
2019-02-08T06:11:33.022Z,6.01
2019-02-08T06:12:32.300Z,5.91
2019-02-08T06:13:32.284Z,5.99
2019-02-08T06:14:32.257Z,6.04
2019-02-08T06:15:32.249Z,6.09
2019-02-08T06:16:32.238Z,6.12
2019-02-08T06:17:32.241Z,6.07
2019-02-08T06:18:32.213Z,6.14
2019-02-08T06:19:32.206Z,6.14
2019-02-08T06:20:32.188Z,6.07
2019-02-08T06:21:32.183Z,6.12
2019-02-08T06:22:32.189Z,6.17
2019-02-08T06:23:32.155Z,6.08
2019-02-08T06:24:32.176Z,6.14
2019-02-08T06:25:32.139Z,6.09
2019-02-08T06:26:32.130Z,6.07
2019-02-08T06:27:32.117Z,6.16
2019-02-08T06:28:32.104Z,6.09
2019-02-08T06:29:32.090Z,6.11
2019-02-08T06:30:32.097Z,6.09
2019-02-08T06:31:32.071Z,6.07
2019-02-08T06:32:32.080Z,6.12
2019-02-08T06:33:32.054Z,6.08
2019-02-08T06:34:32.036Z,6.07
2019-02-08T06:35:32.028Z,6.20
2019-02-08T06:36:32.021Z,6.16
2019-02-08T06:37:32.029Z,6.20
2019-02-08T06:38:32.006Z,6.20
2019-02-08T06:39:32.005Z,6.17
2019-02-08T06:40:31.976Z,6.17
2019-02-08T06:41:31.965Z,6.20
2019-02-08T06:42:31.973Z,6.17
2019-02-08T06:43:31.941Z,6.24
2019-02-08T06:44:31.935Z,6.20
2019-02-08T06:45:31.925Z,6.22
2019-02-08T06:46:31.914Z,6.30
2019-02-08T06:47:31.900Z,6.33
2019-02-08T06:48:31.908Z,6.28
2019-02-08T06:49:31.873Z,6.27
2019-02-08T06:50:31.868Z,6.24
2019-02-08T06:51:31.855Z,6.22
2019-02-08T06:52:31.866Z,6.20
2019-02-08T06:53:31.829Z,6.31
2019-02-08T06:54:31.822Z,6.22
2019-02-08T06:55:31.812Z,6.38
2019-02-08T06:56:31.809Z,6.38
2019-02-08T06:57:31.815Z,6.30
2019-02-08T06:58:31.783Z,6.35
2019-02-08T06:59:31.784Z,6.36
2019-02-08T07:00:31.756Z,6.45
2019-02-08T07:01:31.743Z,6.35
2019-02-08T07:02:31.749Z,6.51
2019-02-08T07:03:31.723Z,6.45
2019-02-08T07:04:31.717Z,6.51
2019-02-08T07:05:31.707Z,6.49
2019-02-08T07:06:31.707Z,6.54
2019-02-08T07:07:31.681Z,6.60
2019-02-08T07:08:31.673Z,6.63
2019-02-08T07:09:31.682Z,6.59
2019-02-08T07:10:31.652Z,6.57
2019-02-08T07:11:31.640Z,6.52
2019-02-08T07:12:31.625Z,6.54
2019-02-08T07:13:31.613Z,6.57
2019-02-08T07:14:31.628Z,6.60
2019-02-08T07:15:31.598Z,6.56
2019-02-08T07:16:31.585Z,6.56
2019-02-08T07:17:31.576Z,6.57
2019-02-08T07:18:31.566Z,6.60
2019-02-08T07:19:31.552Z,6.51
2019-02-08T07:20:31.567Z,6.54
2019-02-08T07:21:31.528Z,6.62
2019-02-08T07:22:31.523Z,6.63
2019-02-08T07:23:31.508Z,6.62
2019-02-08T07:24:31.513Z,6.69
2019-02-08T07:25:31.482Z,6.62
2019-02-08T07:26:31.481Z,6.70
2019-02-08T07:27:31.480Z,6.67
2019-02-08T07:28:31.455Z,6.66
2019-02-08T07:29:31.449Z,6.66
2019-02-08T07:30:31.435Z,6.62
2019-02-08T07:31:31.440Z,6.66
2019-02-08T07:32:31.408Z,6.60
2019-02-08T07:33:31.400Z,6.77
2019-02-08T07:34:31.385Z,6.79
2019-02-08T07:35:31.378Z,6.84
2019-02-08T07:36:31.394Z,6.82
2019-02-08T07:37:31.384Z,6.88
2019-02-08T07:38:31.341Z,6.85
2019-02-08T07:39:31.339Z,6.84
2019-02-08T07:40:31.323Z,6.97
2019-02-08T07:41:31.317Z,6.88
2019-02-08T07:42:31.321Z,6.93
2019-02-08T07:43:31.294Z,6.89
2019-02-08T07:44:31.288Z,6.97
2019-02-08T07:45:31.266Z,7.06
2019-02-08T07:46:31.255Z,6.99
2019-02-08T07:47:31.279Z,6.87
2019-02-08T07:48:31.242Z,6.97
2019-02-08T07:49:31.231Z,6.89
2019-02-08T07:50:31.219Z,6.89
2019-02-08T07:51:31.222Z,7.00
2019-02-08T07:52:31.200Z,7.02
2019-02-08T07:53:31.179Z,6.96
2019-02-08T07:54:31.178Z,7.02
2019-02-08T07:55:31.166Z,7.02
2019-02-08T07:56:31.167Z,7.14
2019-02-08T07:57:31.136Z,7.13
2019-02-08T07:58:31.126Z,7.10
2019-02-08T07:59:31.116Z,7.18
2019-02-08T08:00:31.108Z,7.18
2019-02-08T08:01:31.118Z,7.07
2019-02-08T08:02:31.091Z,7.05
2019-02-08T08:03:31.075Z,7.07
2019-02-08T08:04:31.081Z,7.07
2019-02-08T08:05:31.052Z,7.05
2019-02-08T08:06:31.042Z,7.05
2019-02-08T08:07:31.031Z,7.10
2019-02-08T08:08:31.024Z,7.18
2019-02-08T08:09:31.048Z,7.21
2019-02-08T08:10:30.997Z,7.21
2019-02-08T08:11:30.986Z,7.17
2019-02-08T08:12:30.979Z,7.07
2019-02-08T08:13:30.969Z,7.15
2019-02-08T08:14:30.958Z,7.20
2019-02-08T08:15:30.964Z,7.21
2019-02-08T08:16:30.931Z,7.33
2019-02-08T08:17:30.920Z,7.23
2019-02-08T08:18:30.917Z,7.31
2019-02-08T08:19:30.918Z,7.36
2019-02-08T08:20:30.890Z,7.33
2019-02-08T08:21:30.899Z,7.33
2019-02-08T08:22:30.872Z,7.36
2019-02-08T08:23:30.860Z,7.36
2019-02-08T08:24:30.850Z,7.29
2019-02-08T08:25:34.084Z,7.42
2019-02-08T08:26:30.828Z,7.39
2019-02-08T08:27:30.814Z,7.36
2019-02-08T08:28:30.802Z,7.33
2019-02-08T08:29:30.808Z,7.40
2019-02-08T08:30:30.780Z,7.36
2019-02-08T08:31:30.786Z,7.35
2019-02-08T08:32:30.760Z,7.35
2019-02-08T08:33:30.753Z,7.36
2019-02-08T08:34:30.741Z,7.36
2019-02-08T08:35:30.728Z,7.32
2019-02-08T08:36:30.736Z,7.36
2019-02-08T08:37:30.700Z,7.42
2019-02-08T08:38:30.719Z,7.38
2019-02-08T08:39:30.685Z,7.32
2019-02-08T08:40:30.672Z,7.43
2019-02-08T08:41:30.665Z,7.51
2019-02-08T08:42:30.647Z,7.51
2019-02-08T08:43:30.675Z,7.53
2019-02-08T08:44:30.646Z,7.50
2019-02-08T08:45:30.621Z,7.51
2019-02-08T08:46:30.629Z,7.58
2019-02-08T08:47:30.597Z,7.57
2019-02-08T08:48:30.582Z,7.61
2019-02-08T08:49:30.569Z,7.70
2019-02-08T08:50:30.568Z,7.63
2019-02-08T08:51:30.599Z,7.61
2019-02-08T08:52:30.546Z,7.67
2019-02-08T08:53:30.535Z,7.54
2019-02-08T08:54:30.524Z,7.54
2019-02-08T08:55:30.510Z,7.54
2019-02-08T08:56:30.516Z,7.60
2019-02-08T08:57:30.482Z,7.63
2019-02-08T08:58:30.484Z,7.72
2019-02-08T08:59:30.468Z,7.67
2019-02-08T09:00:30.474Z,7.63
2019-02-08T09:01:30.441Z,7.72
2019-02-08T09:02:30.430Z,7.70
2019-02-08T09:03:30.424Z,7.66
2019-02-08T09:04:30.413Z,7.69
2019-02-08T09:05:30.423Z,7.69
2019-02-08T09:06:30.411Z,7.73
2019-02-08T09:07:30.383Z,7.69
2019-02-08T09:08:30.365Z,7.76
2019-02-08T09:09:30.363Z,7.75
2019-02-08T09:10:30.370Z,7.69
2019-02-08T09:11:30.413Z,7.72
2019-02-08T09:12:30.324Z,7.82
2019-02-08T09:13:30.319Z,7.87
2019-02-08T09:14:30.300Z,7.93
2019-02-08T09:15:30.291Z,7.90
2019-02-08T09:16:30.302Z,7.94
2019-02-08T09:17:30.277Z,8.00
2019-02-08T09:18:30.261Z,8.06
2019-02-08T09:19:30.256Z,8.00
2019-02-08T09:20:30.237Z,8.08
2019-02-08T09:21:30.244Z,8.05
2019-02-08T09:22:30.241Z,8.06
2019-02-08T09:23:30.205Z,8.05
2019-02-08T09:24:30.201Z,8.20
2019-02-08T09:25:30.192Z,8.15
2019-02-08T09:26:30.178Z,8.18
2019-02-08T09:27:30.164Z,8.20
2019-02-08T09:28:30.190Z,8.26
2019-02-08T09:29:30.140Z,8.20
2019-02-08T09:30:30.153Z,8.18
2019-02-08T09:31:30.119Z,8.15
2019-02-08T09:32:30.112Z,8.23
2019-02-08T09:33:30.148Z,8.06
2019-02-08T09:34:30.082Z,8.10
2019-02-08T09:35:30.073Z,8.08
2019-02-08T09:36:30.065Z,7.98
2019-02-08T09:37:30.055Z,7.97
2019-02-08T09:38:30.051Z,8.00
2019-02-08T09:39:30.052Z,7.94
2019-02-08T09:40:30.017Z,8.03
2019-02-08T09:41:30.003Z,7.97
2019-02-08T09:42:30.000Z,8.05
2019-02-08T09:43:29.983Z,8.08
2019-02-08T09:44:29.996Z,8.18
2019-02-08T09:45:29.968Z,8.27
2019-02-08T09:46:29.950Z,8.41
2019-02-08T09:47:29.941Z,8.34
2019-02-08T09:48:29.952Z,8.37
2019-02-08T09:49:29.923Z,8.42
2019-02-08T09:50:29.932Z,8.34
2019-02-08T09:51:29.900Z,8.37
2019-02-08T09:52:29.890Z,8.31
2019-02-08T09:53:29.880Z,8.42
2019-02-08T09:54:29.880Z,8.45
2019-02-08T09:55:29.856Z,8.42
2019-02-08T09:56:29.850Z,8.38
2019-02-08T09:57:29.848Z,8.44
2019-02-08T09:58:29.838Z,8.41
2019-02-08T09:59:29.845Z,8.42
2019-02-08T10:00:29.817Z,8.52
2019-02-08T10:01:29.786Z,8.53
2019-02-08T10:02:29.785Z,8.48
2019-02-08T10:03:29.794Z,8.46
2019-02-08T10:04:29.758Z,8.46
2019-02-08T10:05:29.742Z,8.49
2019-02-08T10:06:29.866Z,8.51
2019-02-08T10:07:29.723Z,8.64
2019-02-08T10:08:29.716Z,8.74
2019-02-08T10:09:29.723Z,8.69
2019-02-08T10:10:29.695Z,8.71
2019-02-08T10:11:29.682Z,8.85
2019-02-08T10:12:29.671Z,8.84
2019-02-08T10:13:29.656Z,8.81
2019-02-08T10:14:29.696Z,8.73
2019-02-08T10:15:29.637Z,8.87
2019-02-08T10:16:29.628Z,8.70
2019-02-08T10:17:29.621Z,8.74
2019-02-08T10:18:29.601Z,8.84
2019-02-08T10:19:29.593Z,8.89
2019-02-08T10:20:29.606Z,8.85
2019-02-08T10:21:29.579Z,8.85
2019-02-08T10:22:29.564Z,8.95
2019-02-08T10:23:29.557Z,8.89
2019-02-08T10:24:29.538Z,8.88
2019-02-08T10:25:29.544Z,8.99
2019-02-08T10:26:29.516Z,8.87
2019-02-08T10:27:29.505Z,9.03
2019-02-08T10:28:29.499Z,8.94
2019-02-08T10:29:29.490Z,8.87
2019-02-08T10:30:29.493Z,8.79
2019-02-08T10:31:29.481Z,8.74
2019-02-08T10:32:29.451Z,8.82
2019-02-08T10:33:29.441Z,8.78
2019-02-08T10:34:29.436Z,8.91
2019-02-08T10:35:29.446Z,8.95
2019-02-08T10:36:29.409Z,8.92
2019-02-08T10:37:29.413Z,8.89
2019-02-08T10:38:29.384Z,8.97
2019-02-08T10:39:29.376Z,8.87
2019-02-08T10:40:29.365Z,8.91
2019-02-08T10:41:30.741Z,8.89
2019-02-08T10:42:29.339Z,8.91
2019-02-08T10:43:29.344Z,8.81
2019-02-08T10:44:29.356Z,8.84
2019-02-08T10:45:29.313Z,8.87
2019-02-08T10:46:29.324Z,8.73
2019-02-08T10:47:29.289Z,8.73
2019-02-08T10:48:29.293Z,8.73
2019-02-08T10:49:29.262Z,8.73
2019-02-08T10:50:29.265Z,8.67
2019-02-08T10:51:29.263Z,8.78
2019-02-08T10:52:29.232Z,8.73
2019-02-08T10:53:29.242Z,8.76
2019-02-08T10:54:29.212Z,8.76
2019-02-08T10:55:29.220Z,8.73
2019-02-08T10:56:29.223Z,8.81
2019-02-08T10:57:29.181Z,8.76
2019-02-08T10:58:29.177Z,8.67
2019-02-08T10:59:29.180Z,8.55
2019-02-08T11:00:29.144Z,8.55
2019-02-08T11:01:29.150Z,8.55
2019-02-08T11:02:29.124Z,8.52
2019-02-08T11:03:29.111Z,8.52
2019-02-08T11:04:29.105Z,8.52
2019-02-08T11:05:29.095Z,8.49
2019-02-08T11:06:29.095Z,8.52
2019-02-08T11:07:29.085Z,8.60
2019-02-08T11:08:29.107Z,8.52
2019-02-08T11:09:29.052Z,8.56
2019-02-08T11:10:29.039Z,8.53
2019-02-08T11:11:29.050Z,8.55
2019-02-08T11:12:29.014Z,8.45
2019-02-08T11:13:29.002Z,8.49
2019-02-08T11:14:28.992Z,8.51
2019-02-08T11:15:28.983Z,8.49
2019-02-08T11:16:29.009Z,8.55
2019-02-08T11:17:28.993Z,8.73
2019-02-08T11:18:28.954Z,8.70
2019-02-08T11:19:28.941Z,8.81
2019-02-08T11:20:28.927Z,8.85
2019-02-08T11:21:28.933Z,8.89
2019-02-08T11:22:28.911Z,9.02
2019-02-08T11:23:28.903Z,9.06
2019-02-08T11:24:28.885Z,9.08
2019-02-08T11:25:28.877Z,9.21
2019-02-08T11:26:28.892Z,9.28
2019-02-08T11:27:28.852Z,9.29
2019-02-08T11:28:28.844Z,9.21
2019-02-08T11:29:28.852Z,9.25
2019-02-08T11:30:28.825Z,9.26
2019-02-08T11:31:28.832Z,9.44
2019-02-08T11:32:42.973Z,9.46
2019-02-08T11:33:29.788Z,9.55
2019-02-08T11:34:28.774Z,9.55
2019-02-08T11:35:28.782Z,9.55
2019-02-08T11:36:28.755Z,9.59
2019-02-08T11:37:28.749Z,9.56
2019-02-08T11:38:28.730Z,9.68
2019-02-08T11:39:28.724Z,9.66
2019-02-08T11:40:28.739Z,9.64
2019-02-08T11:41:28.704Z,9.66
2019-02-08T11:42:28.691Z,9.83
2019-02-08T11:43:28.679Z,9.79
2019-02-08T11:44:28.665Z,9.77
2019-02-08T11:45:28.670Z,9.69
2019-02-08T11:46:28.642Z,9.66
2019-02-08T11:47:28.634Z,9.61
2019-02-08T11:48:28.624Z,9.69
2019-02-08T11:49:28.634Z,9.58
2019-02-08T11:50:28.606Z,9.66
2019-02-08T11:51:28.590Z,9.69
2019-02-08T11:52:28.577Z,9.73
2019-02-08T11:53:28.564Z,9.83
2019-02-08T11:54:28.586Z,9.77
2019-02-08T11:55:28.548Z,9.83
2019-02-08T11:56:29.956Z,9.80
2019-02-08T11:57:28.518Z,9.94
2019-02-08T11:58:28.522Z,9.91
2019-02-08T11:59:28.499Z,9.83
2019-02-08T12:00:28.517Z,9.82
2019-02-08T12:01:28.481Z,9.86
2019-02-08T12:02:28.479Z,9.79
2019-02-08T12:03:28.461Z,9.86
2019-02-08T12:04:28.447Z,10.04
2019-02-08T12:05:28.432Z,10.05
2019-02-08T12:06:28.444Z,10.07
2019-02-08T12:07:28.411Z,10.04
2019-02-08T12:08:28.408Z,10.10
2019-02-08T12:09:28.415Z,10.12
2019-02-08T12:10:28.394Z,9.94
2019-02-08T12:11:28.369Z,10.05
2019-02-08T12:12:28.362Z,10.02
2019-02-08T12:13:28.353Z,10.10
2019-02-08T12:14:28.342Z,10.05
2019-02-08T12:15:28.361Z,10.12
2019-02-08T12:16:28.318Z,10.16
2019-02-08T12:17:28.302Z,10.16
2019-02-08T12:18:28.289Z,10.02
2019-02-08T12:19:28.311Z,9.95
2019-02-08T12:20:28.293Z,9.99
2019-02-08T12:21:28.282Z,10.07
2019-02-08T12:22:28.261Z,10.02
2019-02-08T12:23:28.238Z,10.05
2019-02-08T12:24:28.226Z,9.99
2019-02-08T12:25:28.229Z,10.01
2019-02-08T12:26:28.208Z,10.04
2019-02-08T12:27:28.196Z,9.92
2019-02-08T12:28:28.183Z,10.04
2019-02-08T12:29:28.168Z,9.98
2019-02-08T12:30:28.175Z,10.09
2019-02-08T12:31:28.167Z,10.09
2019-02-08T12:32:28.139Z,9.89
2019-02-08T12:33:28.134Z,9.98
2019-02-08T12:34:28.121Z,9.94
2019-02-08T12:35:28.126Z,9.95
2019-02-08T12:36:28.114Z,10.05
2019-02-08T12:37:28.107Z,9.94
2019-02-08T12:38:28.069Z,9.99
2019-02-08T12:39:28.067Z,10.05
2019-02-08T12:40:28.051Z,10.09
2019-02-08T12:41:28.041Z,10.04
2019-02-08T12:42:28.025Z,10.10
2019-02-08T12:43:28.040Z,10.09
2019-02-08T12:44:28.007Z,9.97
2019-02-08T12:45:28.004Z,10.09
2019-02-08T12:46:27.986Z,10.10
2019-02-08T12:47:27.974Z,10.04
2019-02-08T12:48:27.960Z,10.13
2019-02-08T12:49:27.966Z,10.12
2019-02-08T12:50:27.936Z,10.16
2019-02-08T12:51:27.941Z,9.99
2019-02-08T12:52:27.918Z,10.02
2019-02-08T12:53:27.910Z,10.02
2019-02-08T12:54:27.917Z,9.98
2019-02-08T12:55:27.983Z,9.87
2019-02-08T12:56:27.876Z,9.80
2019-02-08T12:57:27.869Z,9.82
2019-02-08T12:58:27.857Z,9.80
2019-02-08T12:59:27.867Z,9.83
2019-02-08T13:00:27.836Z,9.97
2019-02-08T13:01:27.823Z,9.87
2019-02-08T13:02:27.802Z,9.84
2019-02-08T13:03:27.799Z,9.91
2019-02-08T13:04:27.829Z,9.97
2019-02-08T13:05:27.798Z,9.94
2019-02-08T13:06:27.767Z,9.89
2019-02-08T13:07:27.753Z,9.80
2019-02-08T13:08:27.756Z,9.94
2019-02-08T13:09:27.738Z,9.77
2019-02-08T13:10:27.784Z,9.80
2019-02-08T13:11:27.716Z,9.76
2019-02-08T13:12:27.703Z,9.83
2019-02-08T13:13:27.690Z,9.80
2019-02-08T13:14:27.672Z,9.80
2019-02-08T13:15:27.722Z,9.79
2019-02-08T13:16:27.671Z,9.84
2019-02-08T13:17:27.645Z,9.87